createdAt,value
2023-05-19T00:01:45.504Z,11.74
2023-05-19T00:04:15.505Z,11.74
2023-05-19T00:06:42.424Z,11.75
2023-05-19T00:09:10.538Z,11.87
2023-05-19T00:11:38.687Z,11.75
2023-05-19T00:14:10.072Z,11.68
2023-05-19T00:16:38.004Z,11.67
2023-05-19T00:19:32.274Z,11.61
2023-05-19T00:21:59.188Z,11.56
2023-05-19T00:24:25.855Z,11.52
2023-05-19T00:26:52.389Z,11.44
2023-05-19T00:29:19.148Z,11.37
2023-05-19T00:31:46.383Z,11.45
2023-05-19T00:34:13.010Z,11.36
2023-05-19T00:36:39.557Z,11.31
2023-05-19T00:39:06.173Z,11.27
2023-05-19T00:41:32.882Z,11.27
2023-05-19T00:43:59.958Z,11.39
2023-05-19T00:46:26.507Z,11.30
2023-05-19T00:48:53.201Z,11.37
2023-05-19T00:51:20.204Z,11.32
2023-05-19T00:53:49.476Z,11.25
2023-05-19T00:56:16.937Z,11.16
2023-05-19T00:58:44.566Z,11.18
2023-05-19T01:01:12.140Z,11.10
2023-05-19T01:03:40.987Z,11.04
2023-05-19T01:06:08.241Z,11.10
2023-05-19T01:08:37.288Z,10.96
2023-05-19T01:11:08.293Z,10.97
2023-05-19T01:13:36.465Z,10.97
2023-05-19T01:16:09.779Z,10.97
2023-05-19T01:18:50.122Z,10.88
2023-05-19T01:21:23.630Z,10.85
2023-05-19T01:24:11.516Z,10.77
2023-05-19T01:27:11.867Z,10.77
2023-05-19T01:29:41.890Z,10.83
2023-05-19T01:32:10.634Z,10.82
2023-05-19T01:34:42.991Z,10.79
2023-05-19T01:37:10.040Z,10.88
2023-05-19T01:39:37.421Z,10.86
2023-05-19T01:42:04.788Z,10.86
2023-05-19T01:44:32.962Z,10.88
2023-05-19T01:47:00.837Z,10.87
2023-05-19T01:49:27.499Z,10.93
2023-05-19T01:51:54.188Z,10.87
2023-05-19T01:54:20.758Z,10.81
2023-05-19T01:57:11.672Z,10.88
2023-05-19T01:59:56.231Z,10.88
2023-05-19T02:02:35.026Z,10.87
2023-05-19T02:05:13.504Z,10.76
2023-05-19T02:08:00.752Z,10.64
2023-05-19T02:10:33.127Z,10.66
2023-05-19T02:13:04.571Z,10.62
2023-05-19T02:15:38.762Z,10.51
2023-05-19T02:18:06.442Z,10.50
2023-05-19T02:20:33.490Z,10.42
2023-05-19T02:23:00.460Z,10.39
2023-05-19T02:25:27.290Z,10.37
2023-05-19T02:27:54.981Z,10.40
2023-05-19T02:30:21.773Z,10.40
2023-05-19T02:32:48.422Z,10.30
2023-05-19T02:35:15.732Z,10.18
2023-05-19T02:37:42.355Z,10.26
2023-05-19T02:40:09.467Z,10.22
2023-05-19T02:42:36.141Z,10.20
2023-05-19T02:45:02.744Z,10.16
2023-05-19T02:47:29.448Z,10.09
2023-05-19T02:49:56.192Z,10.11
2023-05-19T02:52:22.849Z,10.12
2023-05-19T02:54:49.431Z,10.23
2023-05-19T02:57:16.013Z,10.13
2023-05-19T02:59:43.260Z,10.11
2023-05-19T03:02:09.898Z,10.07
2023-05-19T03:04:41.774Z,9.97
2023-05-19T03:07:13.494Z,9.97
2023-05-19T03:09:40.281Z,9.99
2023-05-19T03:12:07.824Z,9.91
2023-05-19T03:14:35.187Z,9.91
2023-05-19T03:17:01.932Z,9.82
2023-05-19T03:19:28.735Z,9.79
2023-05-19T03:21:56.449Z,9.79
2023-05-19T03:24:23.168Z,9.76
2023-05-19T03:26:50.416Z,9.75
2023-05-19T03:29:17.070Z,9.68
2023-05-19T03:31:43.788Z,9.73
2023-05-19T03:34:10.425Z,9.76
2023-05-19T03:36:40.237Z,9.82
2023-05-19T03:39:07.003Z,9.75
2023-05-19T03:41:33.586Z,9.72
2023-05-19T03:44:00.299Z,9.70
2023-05-19T03:46:26.934Z,9.66
2023-05-19T03:48:53.658Z,9.74
2023-05-19T03:51:20.275Z,9.76
2023-05-19T03:53:47.017Z,9.81
2023-05-19T03:56:13.905Z,9.73
2023-05-19T03:58:45.008Z,9.79
2023-05-19T04:01:11.916Z,9.87
2023-05-19T04:03:38.686Z,9.83
2023-05-19T04:06:05.547Z,9.90
2023-05-19T04:08:32.328Z,9.88
2023-05-19T04:10:58.906Z,9.90
2023-05-19T04:13:25.535Z,9.92
2023-05-19T04:15:52.466Z,10.05
2023-05-19T04:18:19.211Z,10.01
2023-05-19T04:20:45.868Z,9.97
2023-05-19T04:23:12.541Z,10.04
2023-05-19T04:25:40.836Z,10.06
2023-05-19T04:28:07.753Z,10.13
2023-05-19T04:30:34.776Z,10.11
2023-05-19T04:33:03.574Z,10.18
2023-05-19T04:35:30.260Z,10.28
2023-05-19T04:37:56.873Z,10.28
2023-05-19T04:40:23.972Z,10.36
2023-05-19T04:42:52.449Z,10.34
2023-05-19T04:45:19.180Z,10.36
2023-05-19T04:47:48.308Z,10.38
2023-05-19T04:50:16.376Z,10.44
2023-05-19T04:52:45.598Z,10.30
2023-05-19T04:55:13.351Z,10.40
2023-05-19T04:57:40.485Z,10.42
2023-05-19T05:00:12.894Z,10.63
2023-05-19T05:02:39.659Z,10.60
2023-05-19T05:05:06.926Z,10.63
2023-05-19T05:07:33.563Z,10.68
2023-05-19T05:10:00.223Z,10.82
2023-05-19T05:12:27.469Z,10.88
2023-05-19T05:14:54.518Z,11.18
2023-05-19T05:17:21.785Z,11.16
2023-05-19T05:19:48.809Z,11.41
2023-05-19T05:22:16.437Z,11.43
2023-05-19T05:24:43.320Z,11.59
2023-05-19T05:27:10.426Z,11.74
2023-05-19T05:29:37.249Z,11.88
2023-05-19T05:32:04.027Z,12.12
2023-05-19T05:34:30.832Z,11.82
2023-05-19T05:36:57.411Z,11.72
2023-05-19T05:39:23.944Z,11.61
2023-05-19T05:41:50.614Z,11.60
2023-05-19T05:44:17.169Z,11.63
2023-05-19T05:46:44.073Z,11.39
2023-05-19T05:49:12.526Z,11.51
2023-05-19T05:51:40.074Z,11.74
2023-05-19T05:54:07.789Z,11.77
2023-05-19T05:56:36.874Z,11.90
2023-05-19T05:59:03.550Z,12.19
2023-05-19T06:01:34.842Z,12.24
2023-05-19T06:04:02.286Z,12.64
2023-05-19T06:06:29.068Z,12.49
2023-05-19T06:08:55.845Z,12.79
2023-05-19T06:11:22.612Z,12.72
2023-05-19T06:13:49.270Z,12.60
2023-05-19T06:16:15.867Z,12.65
2023-05-19T06:18:42.723Z,12.87
2023-05-19T06:21:10.397Z,12.97
2023-05-19T06:23:37.316Z,13.01
2023-05-19T06:26:03.993Z,12.95
2023-05-19T06:28:30.620Z,12.69
2023-05-19T06:30:57.720Z,12.79
2023-05-19T06:33:26.147Z,12.97
2023-05-19T06:35:54.801Z,12.85
2023-05-19T06:38:21.427Z,12.94
2023-05-19T06:40:48.437Z,13.08
2023-05-19T06:43:15.009Z,12.90
2023-05-19T06:45:41.630Z,12.81
2023-05-19T06:48:08.211Z,13.09
2023-05-19T06:50:34.969Z,12.97
2023-05-19T06:53:01.893Z,12.83
2023-05-19T06:55:28.448Z,13.08
2023-05-19T06:57:55.159Z,13.03
2023-05-19T07:00:23.853Z,12.97
2023-05-19T07:02:51.060Z,13.08
2023-05-19T07:05:17.943Z,13.01
2023-05-19T07:07:44.565Z,12.86
2023-05-19T07:10:11.453Z,12.88
2023-05-19T07:12:38.084Z,12.62
2023-05-19T07:15:05.183Z,12.53
2023-05-19T07:17:31.952Z,12.45
2023-05-19T07:19:58.964Z,12.64
2023-05-19T07:22:25.574Z,12.54
2023-05-19T07:24:52.264Z,12.60
2023-05-19T07:27:19.220Z,12.91
2023-05-19T07:29:45.819Z,12.95
2023-05-19T07:32:12.480Z,13.50
2023-05-19T07:34:39.116Z,13.50
2023-05-19T07:37:05.729Z,13.73
2023-05-19T07:39:33.562Z,14.03
2023-05-19T07:42:00.250Z,13.93
2023-05-19T07:44:27.320Z,14.00
2023-05-19T07:46:54.726Z,13.58
2023-05-19T07:49:21.246Z,13.45
2023-05-19T07:51:47.859Z,13.67
2023-05-19T07:54:14.477Z,13.55
2023-05-19T07:56:41.415Z,13.79
2023-05-19T07:59:08.124Z,14.02
2023-05-19T08:01:34.846Z,13.68
2023-05-19T08:04:01.563Z,14.02
2023-05-19T08:06:30.074Z,13.79
2023-05-19T08:08:56.627Z,13.66
2023-05-19T08:11:23.228Z,13.78
2023-05-19T08:13:49.882Z,13.73
2023-05-19T08:16:16.785Z,13.29
2023-05-19T08:18:43.712Z,13.36
2023-05-19T08:21:10.333Z,13.74
2023-05-19T08:23:37.690Z,13.35
2023-05-19T08:26:04.868Z,13.10
2023-05-19T08:28:31.585Z,13.54
2023-05-19T08:30:58.189Z,14.04
2023-05-19T08:33:24.829Z,14.09
2023-05-19T08:35:51.423Z,14.18
2023-05-19T08:38:18.042Z,14.46
2023-05-19T08:40:47.370Z,14.59
2023-05-19T08:43:14.160Z,14.28
2023-05-19T08:45:48.264Z,14.30
2023-05-19T08:48:17.539Z,14.68
2023-05-19T08:50:53.049Z,14.76
2023-05-19T08:53:33.366Z,13.86
2023-05-19T08:56:10.779Z,14.30
2023-05-19T08:58:43.763Z,14.69
2023-05-19T09:01:17.060Z,14.65
2023-05-19T09:03:45.766Z,14.50
2023-05-19T09:06:13.597Z,14.43
2023-05-19T09:08:41.724Z,14.43
2023-05-19T09:11:12.137Z,14.96
2023-05-19T09:13:39.180Z,14.83
2023-05-19T09:16:06.599Z,15.17
2023-05-19T09:18:33.363Z,15.18
2023-05-19T09:21:02.793Z,14.87
2023-05-19T09:23:35.329Z,15.09
2023-05-19T09:26:07.893Z,15.44
2023-05-19T09:28:38.839Z,15.47
2023-05-19T09:31:09.887Z,15.36
2023-05-19T09:33:45.612Z,14.84
2023-05-19T09:36:12.895Z,14.86
2023-05-19T09:38:40.514Z,15.08
2023-05-19T09:41:08.950Z,15.16
2023-05-19T09:43:36.441Z,15.09
2023-05-19T09:46:08.253Z,15.38
2023-05-19T09:48:36.466Z,15.55
2023-05-19T09:51:05.385Z,15.25
2023-05-19T09:53:32.709Z,15.10
2023-05-19T09:56:02.024Z,15.69
2023-05-19T09:58:34.599Z,15.72
2023-05-19T10:01:01.758Z,16.04
2023-05-19T10:03:28.488Z,15.22
2023-05-19T10:05:55.869Z,15.17
2023-05-19T10:08:24.512Z,15.24
2023-05-19T10:10:51.439Z,15.26
2023-05-19T10:13:18.519Z,15.60
2023-05-19T10:18:21.459Z,15.29
2023-05-19T10:20:50.199Z,15.42
2023-05-19T10:23:17.124Z,15.72
2023-05-19T10:25:44.654Z,15.51
2023-05-19T10:28:16.843Z,15.79
2023-05-19T10:30:46.556Z,15.91
2023-05-19T10:33:17.293Z,15.77
2023-05-19T10:36:14.748Z,15.74
2023-05-19T10:38:53.430Z,15.95
2023-05-19T10:41:34.878Z,16.01
2023-05-19T10:44:11.059Z,15.60
2023-05-19T10:46:40.687Z,15.86
2023-05-19T10:49:10.397Z,15.86
2023-05-19T10:51:37.246Z,15.74
2023-05-19T10:54:10.468Z,15.48
2023-05-19T10:56:42.477Z,15.84
2023-05-19T10:59:33.025Z,16.20
2023-05-19T11:02:08.987Z,15.96
2023-05-19T11:04:51.912Z,16.26
2023-05-19T11:07:20.666Z,16.32
2023-05-19T11:09:52.100Z,16.52
2023-05-19T11:12:24.716Z,16.79
2023-05-19T11:14:55.577Z,17.09
2023-05-19T11:17:25.148Z,16.43
2023-05-19T11:19:57.213Z,16.69
2023-05-19T11:22:26.188Z,16.85
2023-05-19T11:24:55.674Z,16.64
2023-05-19T11:27:32.904Z,17.33
2023-05-19T11:30:14.687Z,17.33
2023-05-19T11:32:44.226Z,17.80
2023-05-19T11:35:11.224Z,18.34
2023-05-19T11:37:37.989Z,18.75
2023-05-19T11:40:08.838Z,18.61
2023-05-19T11:42:37.189Z,17.57
2023-05-19T11:45:05.090Z,18.10
2023-05-19T11:47:46.017Z,18.67
2023-05-19T11:50:19.103Z,19.40
2023-05-19T11:52:47.750Z,19.11
2023-05-19T11:55:25.067Z,18.77
2023-05-19T12:00:30.501Z,19.15
2023-05-19T12:02:58.021Z,18.67
2023-05-19T12:05:25.934Z,19.21
2023-05-19T12:07:53.199Z,18.59
2023-05-19T12:10:31.470Z,19.95
2023-05-19T12:12:58.594Z,19.24
2023-05-19T12:15:25.843Z,18.27
2023-05-19T12:18:02.546Z,19.52
2023-05-19T12:20:36.217Z,20.28
2023-05-19T12:23:04.096Z,20.80
2023-05-19T12:25:33.367Z,20.78
2023-05-19T12:28:04.881Z,20.49
2023-05-19T12:30:33.153Z,19.51
2023-05-19T12:33:02.038Z,19.75
2023-05-19T12:35:30.618Z,20.06
2023-05-19T12:37:57.871Z,20.64
2023-05-19T12:40:25.894Z,21.45
2023-05-19T12:42:59.248Z,21.09
2023-05-19T12:45:28.092Z,21.11
2023-05-19T12:47:54.927Z,21.44
2023-05-19T12:50:21.568Z,21.65
2023-05-19T12:52:52.116Z,20.78
2023-05-19T12:55:20.963Z,20.60
2023-05-19T12:57:54.713Z,20.37
2023-05-19T13:00:25.180Z,20.46
2023-05-19T13:02:57.828Z,19.96
2023-05-19T13:05:24.831Z,19.39
2023-05-19T13:08:06.154Z,18.51
2023-05-19T13:10:34.501Z,18.69
2023-05-19T13:13:01.632Z,18.57
2023-05-19T13:15:35.464Z,19.06
2023-05-19T13:18:04.545Z,18.13
2023-05-19T13:20:31.259Z,18.43
2023-05-19T13:22:57.994Z,18.04
2023-05-19T13:25:24.786Z,18.22
2023-05-19T13:27:51.421Z,18.80
2023-05-19T13:30:19.092Z,18.11
2023-05-19T13:32:46.119Z,18.52
2023-05-19T13:35:14.120Z,18.57
2023-05-19T13:37:43.783Z,18.00
2023-05-19T13:40:11.225Z,17.46
2023-05-19T13:42:38.149Z,17.07
2023-05-19T13:45:05.249Z,17.07
2023-05-19T13:47:32.134Z,17.07
2023-05-19T13:49:58.900Z,17.01
2023-05-19T13:52:27.516Z,16.67
2023-05-19T13:54:56.699Z,16.60
2023-05-19T13:57:26.604Z,16.27
2023-05-19T14:00:02.709Z,16.69
2023-05-19T14:02:30.880Z,16.61
2023-05-19T14:04:57.896Z,16.18
2023-05-19T14:07:25.705Z,16.31
2023-05-19T14:09:52.917Z,16.75
2023-05-19T14:12:23.208Z,16.89
2023-05-19T14:14:52.164Z,16.68
2023-05-19T14:17:19.028Z,16.76
2023-05-19T14:19:45.649Z,16.55
2023-05-19T14:22:13.464Z,16.55
2023-05-19T14:24:40.083Z,16.18
2023-05-19T14:27:06.773Z,16.28
2023-05-19T14:29:33.947Z,16.08
2023-05-19T14:32:00.846Z,16.11
2023-05-19T14:34:27.532Z,15.93
2023-05-19T14:36:54.113Z,15.86
2023-05-19T14:39:21.093Z,16.03
2023-05-19T14:41:49.430Z,16.01
2023-05-19T14:44:16.066Z,15.94
2023-05-19T14:46:42.864Z,15.68
2023-05-19T14:49:09.645Z,15.60
2023-05-19T14:51:36.405Z,15.45
2023-05-19T14:54:03.126Z,15.46
2023-05-19T14:56:29.718Z,15.34
2023-05-19T14:58:56.530Z,15.67
2023-05-19T15:01:23.321Z,15.62
2023-05-19T15:03:50.041Z,15.64
2023-05-19T15:06:16.670Z,15.64
2023-05-19T15:08:43.390Z,15.41
2023-05-19T15:11:10.157Z,15.41
2023-05-19T15:13:36.929Z,15.34
2023-05-19T15:16:16.277Z,15.32
2023-05-19T15:18:44.792Z,15.18
2023-05-19T15:21:11.873Z,15.18
2023-05-19T15:23:38.543Z,15.33
2023-05-19T15:26:05.522Z,15.44
2023-05-19T15:28:32.411Z,15.38
2023-05-19T15:30:59.130Z,15.22
2023-05-19T15:33:25.829Z,15.48
2023-05-19T15:35:52.549Z,15.69
2023-05-19T15:38:19.636Z,15.70
2023-05-19T15:40:46.958Z,15.62
2023-05-19T15:43:14.143Z,15.70
2023-05-19T15:45:41.104Z,16.05
2023-05-19T15:48:08.299Z,15.96
2023-05-19T15:50:35.568Z,15.97
2023-05-19T15:53:02.454Z,16.00
2023-05-19T15:55:29.212Z,15.57
2023-05-19T15:57:56.082Z,15.20
2023-05-19T16:00:22.698Z,15.08
2023-05-19T16:02:49.385Z,14.86
2023-05-19T16:05:16.791Z,14.77
2023-05-19T16:07:43.464Z,14.70
2023-05-19T16:10:10.205Z,14.63
2023-05-19T16:12:37.093Z,14.71
2023-05-19T16:15:04.116Z,14.65
2023-05-19T16:17:30.979Z,14.67
2023-05-19T16:19:57.667Z,14.61
2023-05-19T16:22:24.990Z,14.56
2023-05-19T16:24:52.333Z,14.58
2023-05-19T16:27:19.133Z,14.55
2023-05-19T16:29:45.875Z,14.53
2023-05-19T16:32:12.998Z,14.50
2023-05-19T16:34:39.929Z,14.48
2023-05-19T16:37:06.628Z,14.54
2023-05-19T16:39:36.077Z,14.52
2023-05-19T16:42:03.830Z,14.61
2023-05-19T16:44:30.501Z,14.57
2023-05-19T16:46:57.153Z,14.50
2023-05-19T16:49:23.805Z,14.46
2023-05-19T16:51:50.477Z,14.53
2023-05-19T16:54:17.226Z,14.53
2023-05-19T16:56:44.087Z,14.61
2023-05-19T16:59:10.713Z,14.65
2023-05-19T17:01:37.448Z,14.52
2023-05-19T17:04:04.032Z,14.68
2023-05-19T17:06:31.203Z,14.53
2023-05-19T17:08:57.731Z,14.47
2023-05-19T17:11:24.279Z,14.39
2023-05-19T17:13:50.989Z,14.49
2023-05-19T17:16:17.812Z,14.57
2023-05-19T17:18:44.441Z,14.53
2023-05-19T17:21:11.025Z,14.43
2023-05-19T17:23:38.220Z,14.59
2023-05-19T17:26:04.969Z,14.62
2023-05-19T17:28:31.783Z,14.49
2023-05-19T17:30:58.475Z,14.47
2023-05-19T17:33:25.140Z,14.57
2023-05-19T17:35:51.780Z,14.44
2023-05-19T17:38:18.347Z,14.33
2023-05-19T17:40:44.931Z,14.43
2023-05-19T17:43:11.610Z,14.33
2023-05-19T17:45:38.328Z,14.34
2023-05-19T17:48:05.429Z,14.35
2023-05-19T17:50:32.402Z,14.30
2023-05-19T17:52:59.440Z,14.24
2023-05-19T17:55:29.989Z,14.45
2023-05-19T17:57:57.432Z,14.22
2023-05-19T18:00:25.270Z,14.15
2023-05-19T18:02:52.897Z,14.22
2023-05-19T18:05:20.153Z,14.05
2023-05-19T18:07:48.098Z,14.06
2023-05-19T18:10:16.420Z,14.02
2023-05-19T18:12:43.307Z,14.25
2023-05-19T18:15:10.335Z,14.10
2023-05-19T18:17:38.228Z,14.02
2023-05-19T18:20:05.354Z,14.04
2023-05-19T18:22:31.900Z,13.96
2023-05-19T18:24:58.512Z,14.00
2023-05-19T18:27:25.065Z,13.92
2023-05-19T18:29:51.620Z,13.92
2023-05-19T18:32:18.209Z,13.85
2023-05-19T18:34:44.769Z,13.83
2023-05-19T18:37:11.321Z,13.88
2023-05-19T18:39:37.900Z,13.80
2023-05-19T18:42:04.811Z,13.70
2023-05-19T18:44:33.891Z,13.73
2023-05-19T18:47:01.178Z,13.82
2023-05-19T18:49:27.737Z,13.72
2023-05-19T18:51:54.323Z,13.75
2023-05-19T18:54:21.898Z,13.70
2023-05-19T18:56:48.599Z,13.67
2023-05-19T18:59:15.119Z,13.68
2023-05-19T19:01:42.870Z,13.64
2023-05-19T19:04:09.749Z,13.60
2023-05-19T19:06:36.503Z,13.60
2023-05-19T19:09:03.486Z,13.60
2023-05-19T19:11:30.083Z,13.59
2023-05-19T19:13:56.758Z,13.51
2023-05-19T19:16:23.557Z,13.61
2023-05-19T19:18:50.296Z,13.55
2023-05-19T19:21:19.279Z,13.47
2023-05-19T19:23:46.219Z,13.54
2023-05-19T19:26:12.919Z,13.51
2023-05-19T19:28:39.406Z,13.47
2023-05-19T19:31:05.994Z,13.50
2023-05-19T19:33:32.741Z,13.50
2023-05-19T19:35:59.360Z,13.38
2023-05-19T19:38:26.027Z,13.41
2023-05-19T19:40:52.683Z,13.38
2023-05-19T19:43:19.462Z,13.48
2023-05-19T19:45:46.187Z,13.34
2023-05-19T19:48:12.807Z,13.40
2023-05-19T19:50:39.531Z,13.28
2023-05-19T19:53:06.295Z,13.30
2023-05-19T19:55:32.883Z,13.28
2023-05-19T19:57:59.481Z,13.23
2023-05-19T20:00:26.128Z,13.27
2023-05-19T20:03:04.283Z,13.22
2023-05-19T20:05:32.221Z,13.17
2023-05-19T20:07:58.883Z,13.17
2023-05-19T20:10:25.769Z,13.21
2023-05-19T20:12:52.467Z,13.31
2023-05-19T20:15:19.495Z,13.09
2023-05-19T20:17:46.226Z,13.10
2023-05-19T20:20:13.293Z,13.03
2023-05-19T20:22:40.037Z,13.06
2023-05-19T20:25:07.061Z,13.11
2023-05-19T20:27:33.655Z,13.15
2023-05-19T20:30:00.226Z,13.09
2023-05-19T20:32:26.946Z,13.06
2023-05-19T20:34:53.624Z,13.02
2023-05-19T20:37:21.657Z,12.95
2023-05-19T20:39:48.285Z,12.97
2023-05-19T20:42:14.999Z,12.97
2023-05-19T20:44:41.589Z,12.94
2023-05-19T20:47:08.529Z,13.02
2023-05-19T20:49:35.652Z,12.91
2023-05-19T20:52:02.484Z,12.88
2023-05-19T20:54:29.185Z,12.92
2023-05-19T20:56:55.921Z,12.94
2023-05-19T20:59:22.581Z,12.91
2023-05-19T21:01:49.314Z,12.86
2023-05-19T21:04:16.118Z,12.99
2023-05-19T21:06:42.765Z,12.88
2023-05-19T21:09:10.732Z,12.82
2023-05-19T21:11:37.472Z,12.86
2023-05-19T21:14:04.379Z,12.92
2023-05-19T21:16:31.576Z,12.83
2023-05-19T21:18:58.324Z,12.88
2023-05-19T21:21:26.215Z,12.80
2023-05-19T21:23:52.930Z,12.79
2023-05-19T21:26:19.625Z,12.87
2023-05-19T21:28:46.381Z,12.77
2023-05-19T21:31:13.107Z,12.75
2023-05-19T21:33:39.870Z,12.85
2023-05-19T21:36:06.846Z,12.85
2023-05-19T21:38:33.515Z,12.77
2023-05-19T21:41:00.158Z,12.75
2023-05-19T21:43:26.854Z,12.69
2023-05-19T21:45:53.354Z,12.68
2023-05-19T21:48:20.094Z,12.71
2023-05-19T21:50:51.710Z,12.76
2023-05-19T21:53:18.263Z,12.71
2023-05-19T21:55:44.885Z,12.74
2023-05-19T21:58:11.857Z,12.82
2023-05-19T22:00:38.850Z,12.69
2023-05-19T22:03:05.775Z,12.67
2023-05-19T22:05:35.112Z,12.65
2023-05-19T22:08:01.894Z,12.61
2023-05-19T22:10:28.432Z,12.73
2023-05-19T22:12:55.540Z,12.76
2023-05-19T22:15:22.248Z,12.64
2023-05-19T22:17:49.018Z,12.64
2023-05-19T22:20:15.715Z,12.71
2023-05-19T22:22:42.236Z,12.77
2023-05-19T22:25:09.115Z,12.76
2023-05-19T22:27:36.108Z,12.74
2023-05-19T22:30:02.725Z,12.84
2023-05-19T22:32:30.596Z,12.73
2023-05-19T22:34:57.117Z,12.65
2023-05-19T22:37:24.478Z,12.63
2023-05-19T22:39:51.627Z,12.75
2023-05-19T22:42:18.668Z,12.78
2023-05-19T22:44:45.932Z,12.62
2023-05-19T22:47:13.916Z,12.52
2023-05-19T22:49:41.676Z,12.59
2023-05-19T22:52:10.454Z,12.61
2023-05-19T22:54:37.713Z,12.71
2023-05-19T22:57:04.968Z,12.66
2023-05-19T22:59:31.571Z,12.54
2023-05-19T23:01:58.113Z,12.67
2023-05-19T23:04:24.757Z,12.77
2023-05-19T23:06:51.528Z,12.70
2023-05-19T23:09:18.152Z,12.60
2023-05-19T23:11:45.239Z,12.57
2023-05-19T23:14:11.892Z,12.59
2023-05-19T23:16:38.527Z,12.51
2023-05-19T23:19:05.583Z,12.43
2023-05-19T23:21:32.961Z,12.34
2023-05-19T23:23:59.997Z,12.46
2023-05-19T23:26:26.941Z,12.49
2023-05-19T23:28:53.479Z,12.43
2023-05-19T23:31:20.198Z,12.42
2023-05-19T23:33:46.879Z,12.43
2023-05-19T23:36:13.664Z,12.39
2023-05-19T23:38:40.336Z,12.45
2023-05-19T23:41:06.982Z,12.45
2023-05-19T23:43:33.644Z,12.33
2023-05-19T23:46:00.681Z,12.32
2023-05-19T23:48:31.335Z,12.41
2023-05-19T23:50:58.667Z,12.48
2023-05-19T23:53:25.460Z,12.44
2023-05-19T23:55:52.027Z,12.39
2023-05-19T23:58:18.825Z,12.40
